Time;durP1;ratioP1;P1;durP2;ratioP2;P2;SDS_P1;SDS_P2;PMS_P1;PMS_P2;Temp;Humidity;BMP_temperature;BMP_pressure;BME280_temperature;BME280_humidity;BME280_pressure;Samples;Min_cycle;Max_cycle;Signal;HPM_P1;HPM_P2
2023/09/05 00:00:10;;;;;;;5.68;3.08;;;16.00;99.90;;;;;;5038621;27;86288;-75
2023/09/05 00:02:40;;;;;;;7.50;3.80;;;15.90;99.90;;;;;;5040381;27;86470;-75
2023/09/05 00:05:07;;;;;;;6.78;3.38;;;15.90;99.90;;;;;;5039605;27;87189;-75
2023/09/05 00:07:35;;;;;;;5.90;3.53;;;15.80;99.90;;;;;;5040493;27;86509;-75
2023/09/05 00:10:03;;;;;;;5.15;3.70;;;15.80;99.90;;;;;;5041511;27;86113;-75
2023/09/05 00:12:29;;;;;;;5.30;3.15;;;15.70;99.90;;;;;;5039481;27;85769;-75
2023/09/05 00:14:55;;;;;;;5.57;3.90;;;15.70;99.90;;;;;;5041240;27;87318;-75
2023/09/05 00:17:21;;;;;;;6.00;3.67;;;15.60;99.90;;;;;;5038818;27;87354;-75
2023/09/05 00:19:47;;;;;;;6.88;3.83;;;15.60;99.90;;;;;;5040937;27;86261;-75
2023/09/05 00:22:13;;;;;;;6.20;3.55;;;15.60;99.90;;;;;;5043226;27;86120;-75
2023/09/05 00:24:39;;;;;;;7.65;3.90;;;15.60;99.90;;;;;;5043752;27;86481;-75
2023/09/05 00:27:07;;;;;;;4.90;2.85;;;15.60;99.90;;;;;;5044249;27;86403;-75
2023/09/05 00:29:33;;;;;;;8.73;3.83;;;15.50;99.90;;;;;;5041580;27;86660;-75
2023/09/05 00:32:00;;;;;;;5.30;3.92;;;15.50;99.90;;;;;;5042731;27;86650;-75
2023/09/05 00:34:31;;;;;;;5.28;4.15;;;15.40;99.90;;;;;;5043522;27;86597;-75
2023/09/05 00:37:03;;;;;;;6.68;3.97;;;15.40;99.90;;;;;;5044300;27;87433;-74
2023/09/05 00:39:29;;;;;;;7.65;4.28;;;15.30;99.90;;;;;;5044193;27;86675;-75
2023/09/05 00:41:56;;;;;;;7.43;3.80;;;15.30;99.90;;;;;;5041971;27;86268;-75
2023/09/05 00:44:25;;;;;;;4.68;3.65;;;15.30;99.90;;;;;;5043159;27;86510;-75
2023/09/05 00:46:52;;;;;;;4.93;3.95;;;15.30;99.90;;;;;;5043106;27;85998;-75
2023/09/05 00:49:22;;;;;;;5.25;4.00;;;15.30;99.90;;;;;;5044169;27;85970;-75
2023/09/05 00:51:50;;;;;;;6.63;3.83;;;15.20;99.90;;;;;;5044396;27;86190;-75
2023/09/05 00:54:17;;;;;;;5.40;3.88;;;15.20;99.90;;;;;;5043919;27;87327;-75
2023/09/05 00:56:47;;;;;;;7.05;4.32;;;15.10;99.90;;;;;;5047050;27;86433;-75
2023/09/05 00:59:13;;;;;;;11.15;4.43;;;15.20;99.90;;;;;;5043873;27;86886;-75
2023/09/05 01:01:39;;;;;;;7.25;4.07;;;15.10;99.90;;;;;;5042393;27;86518;-75
2023/09/05 01:04:05;;;;;;;4.22;3.60;;;15.00;99.90;;;;;;5041809;27;86428;-75
2023/09/05 01:06:53;;;;;;;5.82;4.22;;;15.00;99.90;;;;;;5044526;27;86597;-74
2023/09/05 01:09:27;;;;;;;6.85;4.38;;;15.00;99.90;;;;;;5018263;27;86983;-75
2023/09/05 01:11:52;;;;;;;;;;;14.90;99.90;;;;;;5043198;27;86885;-75
2023/09/05 01:14:18;;;;;;;5.15;4.05;;;14.90;99.90;;;;;;5044383;27;87890;-75
2023/09/05 01:16:45;;;;;;;5.22;3.47;;;14.90;99.90;;;;;;5041068;27;87003;-75
2023/09/05 01:19:14;;;;;;;5.25;3.38;;;14.90;99.90;;;;;;5043435;27;87216;-74
2023/09/05 01:22:04;;;;;;;5.53;3.45;;;14.80;99.90;;;;;;5043991;27;86393;-75
2023/09/05 01:24:29;;;;;;;7.00;3.80;;;14.80;99.90;;;;;;5042931;27;87413;-75
2023/09/05 01:26:56;;;;;;;4.38;3.55;;;14.80;99.90;;;;;;5043332;27;86839;-75
2023/09/05 01:29:29;;;;;;;7.57;4.20;;;14.70;99.90;;;;;;5043813;27;85790;-75
2023/09/05 01:31:58;;;;;;;5.50;3.65;;;14.70;99.90;;;;;;5041046;27;86330;-75
2023/09/05 01:34:24;;;;;;;6.00;4.13;;;14.70;99.90;;;;;;5042596;27;86748;-75
2023/09/05 01:36:50;;;;;;;7.90;4.25;;;14.70;99.90;;;;;;5046124;27;86950;-75
2023/09/05 01:39:15;;;;;;;7.32;3.75;;;14.60;99.90;;;;;;5040429;27;86568;-74
2023/09/05 01:41:41;;;;;;;4.18;3.38;;;14.60;99.90;;;;;;5041186;27;86989;-75
2023/09/05 01:44:08;;;;;;;5.05;3.90;;;14.60;99.90;;;;;;5039831;27;86925;-75
2023/09/05 01:46:34;;;;;;;5.47;3.28;;;14.50;99.90;;;;;;5039015;27;87555;-74
2023/09/05 01:48:59;;;;;;;4.38;3.55;;;14.50;99.90;;;;;;5044256;27;86836;-75
2023/09/05 01:51:25;;;;;;;6.93;3.35;;;14.50;99.90;;;;;;5043139;27;86371;-75
2023/09/05 01:53:50;;;;;;;7.38;3.97;;;14.50;99.90;;;;;;5042395;27;87505;-75
2023/09/05 01:56:16;;;;;;;5.72;3.45;;;14.40;99.90;;;;;;5040240;27;86790;-75
2023/09/05 01:58:42;;;;;;;5.38;3.55;;;14.40;99.90;;;;;;5043892;27;86819;-75
2023/09/05 02:01:07;;;;;;;6.32;3.30;;;14.40;99.90;;;;;;5045181;27;86669;-75
2023/09/05 02:03:33;;;;;;;8.13;3.80;;;14.40;99.90;;;;;;5040325;27;87932;-75
2023/09/05 02:05:59;;;;;;;4.47;3.30;;;14.30;99.90;;;;;;5042171;27;87062;-75
2023/09/05 02:08:24;;;;;;;5.20;3.67;;;14.30;99.90;;;;;;5043399;27;86260;-75
2023/09/05 02:10:50;;;;;;;5.32;4.00;;;14.30;99.90;;;;;;5043890;27;86137;-74
2023/09/05 02:13:17;;;;;;;9.18;3.47;;;14.20;99.90;;;;;;5043509;27;86443;-75
2023/09/05 02:15:43;;;;;;;5.20;3.58;;;14.20;99.90;;;;;;5041001;27;90520;-75
2023/09/05 02:18:10;;;;;;;4.18;3.38;;;14.20;99.90;;;;;;5040832;27;87259;-75
2023/09/05 02:20:40;;;;;;;6.95;3.47;;;14.20;99.90;;;;;;5041138;27;86556;-75
2023/09/05 02:23:07;;;;;;;7.25;3.90;;;14.20;99.90;;;;;;5041709;27;87282;-75
2023/09/05 02:25:33;;;;;;;6.68;3.20;;;14.20;99.90;;;;;;5044175;27;86347;-75
2023/09/05 02:27:58;;;;;;;4.45;3.50;;;14.20;99.90;;;;;;5042090;27;86601;-75
2023/09/05 02:30:25;;;;;;;9.48;3.70;;;14.10;99.90;;;;;;5039460;27;86043;-75
2023/09/05 02:32:52;;;;;;;8.88;4.63;;;14.10;99.90;;;;;;5042497;27;87126;-74
2023/09/05 02:35:20;;;;;;;5.50;3.25;;;14.10;99.90;;;;;;5041732;27;86499;-75
2023/09/05 02:37:50;;;;;;;7.05;3.70;;;14.10;99.90;;;;;;5042409;27;86298;-75
2023/09/05 02:40:15;;;;;;;6.93;3.38;;;14.00;99.90;;;;;;5042674;27;86859;-75
2023/09/05 02:42:41;;;;;;;3.60;3.10;;;14.00;99.90;;;;;;5041963;27;95852;-75
2023/09/05 02:45:07;;;;;;;3.88;3.28;;;14.00;99.90;;;;;;5040146;27;87158;-75
2023/09/05 02:47:33;;;;;;;3.97;3.50;;;13.90;99.90;;;;;;5041046;27;87143;-75
2023/09/05 02:49:58;;;;;;;8.80;3.85;;;13.90;99.90;;;;;;5041647;27;86312;-75
2023/09/05 02:52:24;;;;;;;6.82;3.60;;;13.90;99.90;;;;;;5040424;27;87077;-75
2023/09/05 02:54:50;;;;;;;4.78;3.30;;;13.90;99.90;;;;;;5041441;27;86835;-75
2023/09/05 02:57:16;;;;;;;6.45;4.25;;;13.90;99.90;;;;;;5039394;27;86502;-75
2023/09/05 02:59:42;;;;;;;6.15;4.40;;;13.80;99.90;;;;;;5040170;27;85958;-75
2023/09/05 03:02:07;;;;;;;5.75;3.60;;;13.80;99.90;;;;;;5039926;27;86991;-75
2023/09/05 03:04:33;;;;;;;9.95;4.38;;;13.80;99.90;;;;;;5039351;27;87133;-75
2023/09/05 03:07:01;;;;;;;5.43;4.25;;;13.80;99.90;;;;;;5041228;27;86400;-75
2023/09/05 03:09:26;;;;;;;5.85;3.90;;;13.70;99.90;;;;;;5043120;27;87390;-75
2023/09/05 03:11:52;;;;;;;8.98;4.53;;;13.70;99.90;;;;;;5040024;27;87252;-75
2023/09/05 03:14:18;;;;;;;5.53;3.92;;;13.70;99.90;;;;;;5041235;27;86407;-75
2023/09/05 03:16:43;;;;;;;6.97;4.03;;;13.70;99.90;;;;;;5040883;27;86324;-74
2023/09/05 03:19:11;;;;;;;5.75;4.35;;;13.60;99.90;;;;;;5039953;27;86475;-74
2023/09/05 03:21:40;;;;;;;6.88;4.32;;;13.60;99.90;;;;;;5044637;27;86356;-74
2023/09/05 03:24:05;;;;;;;8.93;4.85;;;13.60;99.90;;;;;;5046156;27;86608;-75
2023/09/05 03:26:31;;;;;;;7.28;4.05;;;13.60;99.90;;;;;;5046866;27;86401;-75
2023/09/05 03:28:59;;;;;;;10.20;4.70;;;13.60;99.90;;;;;;5046605;27;86485;-75
2023/09/05 03:31:28;;;;;;;7.25;4.13;;;13.50;99.90;;;;;;5046554;27;89564;-75
2023/09/05 03:33:54;;;;;;;4.63;3.60;;;13.50;99.90;;;;;;5045033;27;89143;-74
2023/09/05 03:36:21;;;;;;;5.72;3.97;;;13.50;99.90;;;;;;5045704;27;85920;-74
2023/09/05 03:38:47;;;;;;;4.78;3.50;;;13.50;99.90;;;;;;5045266;27;86473;-74
2023/09/05 03:41:13;;;;;;;4.20;3.33;;;13.50;99.90;;;;;;5046642;27;86210;-75
2023/09/05 03:43:39;;;;;;;4.65;3.42;;;13.40;99.90;;;;;;5045637;27;86781;-74
2023/09/05 03:46:04;;;;;;;9.00;4.45;;;13.40;99.90;;;;;;5046163;27;86492;-75
2023/09/05 03:48:30;;;;;;;5.97;3.30;;;13.40;99.90;;;;;;5048471;27;86505;-75
2023/09/05 03:50:56;;;;;;;4.55;3.35;;;13.40;99.90;;;;;;5047601;27;86886;-75
2023/09/05 03:53:22;;;;;;;9.00;3.83;;;13.30;99.90;;;;;;5046215;27;86542;-75
2023/09/05 03:55:47;;;;;;;4.63;3.63;;;13.30;99.90;;;;;;5045747;27;86961;-75
2023/09/05 03:58:13;;;;;;;6.57;3.70;;;13.30;99.90;;;;;;5047353;27;86827;-75
2023/09/05 04:00:39;;;;;;;6.47;3.90;;;13.20;99.90;;;;;;5046724;27;86492;-74
2023/09/05 04:03:05;;;;;;;5.18;3.92;;;13.20;99.90;;;;;;5046707;27;86799;-74
2023/09/05 04:05:33;;;;;;;3.42;3.10;;;13.20;99.90;;;;;;5045687;27;86122;-75
2023/09/05 04:08:00;;;;;;;5.55;4.00;;;13.20;99.90;;;;;;5046603;27;86928;-74
2023/09/05 04:10:25;;;;;;;6.53;3.20;;;13.10;99.90;;;;;;5045550;27;87733;-74
2023/09/05 04:12:51;;;;;;;7.80;3.47;;;13.10;99.90;;;;;;5046330;27;87451;-75
2023/09/05 04:15:21;;;;;;;8.48;3.88;;;13.10;99.90;;;;;;5045488;27;86782;-75
2023/09/05 04:17:47;;;;;;;7.35;3.85;;;13.00;99.90;;;;;;5046237;27;86093;-74
2023/09/05 04:20:13;;;;;;;7.60;3.60;;;13.10;99.90;;;;;;5045594;27;86950;-75
2023/09/05 04:22:39;;;;;;;8.15;4.18;;;13.10;99.90;;;;;;5047068;27;87035;-74
2023/09/05 04:25:08;;;;;;;8.00;4.45;;;13.10;99.90;;;;;;5045807;27;85996;-74
2023/09/05 04:27:34;;;;;;;8.38;4.53;;;13.10;99.90;;;;;;5044290;27;86806;-75
2023/09/05 04:30:00;;;;;;;6.05;4.22;;;13.10;99.90;;;;;;5045333;27;85791;-74
2023/09/05 04:32:31;;;;;;;7.65;4.38;;;13.00;99.90;;;;;;5043302;27;86883;-74
2023/09/05 04:35:00;;;;;;;7.45;4.03;;;13.00;99.90;;;;;;5044732;27;85801;-75
2023/09/05 04:37:27;;;;;;;16.65;4.82;;;13.00;99.90;;;;;;5043623;27;87444;-75
2023/09/05 04:39:53;;;;;;;5.65;3.80;;;13.00;99.90;;;;;;5045214;27;86862;-75
2023/09/05 04:42:19;;;;;;;8.50;4.03;;;13.00;99.90;;;;;;5045822;27;86100;-75
2023/09/05 04:44:44;;;;;;;9.65;4.35;;;12.90;99.90;;;;;;5045926;27;86297;-75
2023/09/05 04:47:21;;;;;;;5.95;3.88;;;12.90;99.90;;;;;;5044709;27;86369;-74
2023/09/05 04:49:51;;;;;;;7.80;3.45;;;12.90;99.90;;;;;;5046633;27;88402;-75
2023/09/05 04:52:18;;;;;;;5.57;3.40;;;12.90;99.90;;;;;;5045714;27;86453;-75
2023/09/05 04:54:45;;;;;;;6.15;3.30;;;12.90;99.90;;;;;;5046458;27;86246;-74
2023/09/05 04:57:16;;;;;;;6.03;3.80;;;12.90;99.90;;;;;;5045070;27;86530;-75
2023/09/05 04:59:44;;;;;;;6.18;4.43;;;12.90;99.90;;;;;;5044020;27;90722;-75
2023/09/05 05:02:10;;;;;;;7.20;4.03;;;12.90;99.90;;;;;;5048698;27;86650;-74
2023/09/05 05:04:37;;;;;;;4.38;3.70;;;12.90;99.90;;;;;;5045897;27;86487;-75
2023/09/05 05:07:03;;;;;;;10.02;3.90;;;12.90;99.90;;;;;;5042595;27;86849;-75
2023/09/05 05:09:28;;;;;;;7.85;3.55;;;12.90;99.90;;;;;;5044832;27;85803;-75
2023/09/05 05:11:55;;;;;;;8.50;3.67;;;12.90;99.90;;;;;;5044062;27;86591;-75
2023/09/05 05:14:21;;;;;;;8.60;4.40;;;12.90;99.90;;;;;;5047412;27;86292;-75
2023/09/05 05:16:49;;;;;;;6.22;3.85;;;12.90;99.90;;;;;;5048100;27;86265;-75
2023/09/05 05:19:14;;;;;;;8.52;4.55;;;12.90;99.90;;;;;;5049543;27;86924;-74
2023/09/05 05:21:40;;;;;;;12.20;4.50;;;13.00;99.90;;;;;;5050474;27;87201;-75
2023/09/05 05:24:07;;;;;;;5.93;3.75;;;12.90;99.90;;;;;;5048647;27;86250;-74
2023/09/05 05:26:33;;;;;;;5.90;4.10;;;13.00;99.90;;;;;;5048923;27;86283;-74
2023/09/05 05:28:58;;;;;;;8.00;4.88;;;13.00;99.90;;;;;;5049700;27;87473;-74
2023/09/05 05:31:25;;;;;;;6.53;4.38;;;13.00;99.90;;;;;;5049486;27;87332;-75
2023/09/05 05:33:51;;;;;;;9.82;4.45;;;13.00;99.90;;;;;;5049403;27;86359;-75
2023/09/05 05:36:17;;;;;;;11.50;4.68;;;13.00;99.90;;;;;;5048514;27;86308;-74
2023/09/05 05:38:43;;;;;;;8.48;4.68;;;13.00;99.90;;;;;;5045716;27;90110;-74
2023/09/05 05:41:11;;;;;;;10.13;4.30;;;13.10;99.90;;;;;;5048934;27;86710;-74
2023/09/05 05:43:37;;;;;;;12.23;4.93;;;13.20;99.90;;;;;;5050695;27;85999;-74
2023/09/05 05:46:03;;;;;;;27.13;5.95;;;13.20;99.90;;;;;;5048606;27;86529;-74
2023/09/05 05:48:29;;;;;;;40.50;6.78;;;13.20;99.90;;;;;;5047577;27;87471;-74
2023/09/05 05:50:55;;;;;;;34.65;7.43;;;13.30;99.90;;;;;;5047335;27;86049;-74
2023/09/05 05:53:22;;;;;;;28.23;6.05;;;13.40;99.90;;;;;;5046787;27;86258;-74
2023/09/05 05:55:48;;;;;;;22.83;5.75;;;13.40;99.90;;;;;;5048700;27;85965;-74
2023/09/05 05:58:15;;;;;;;17.40;5.22;;;13.50;99.90;;;;;;5050382;27;86461;-74
2023/09/05 06:00:50;;;;;;;14.75;5.70;;;13.60;99.90;;;;;;5048705;27;86156;-74
2023/09/05 06:03:20;;;;;;;16.42;6.30;;;13.60;99.90;;;;;;5048138;27;86656;-74
2023/09/05 06:05:47;;;;;;;13.27;5.30;;;13.70;99.90;;;;;;5048688;27;85847;-74
2023/09/05 06:08:13;;;;;;;11.73;6.05;;;13.80;99.90;;;;;;5047315;27;86987;-75
2023/09/05 06:10:38;;;;;;;16.95;5.90;;;13.90;99.90;;;;;;5047201;27;86753;-75
2023/09/05 06:13:05;;;;;;;11.88;5.65;;;14.00;99.90;;;;;;5049234;27;86261;-75
2023/09/05 06:15:32;;;;;;;8.43;5.05;;;14.10;99.90;;;;;;5047263;27;86244;-75
2023/09/05 06:17:58;;;;;;;9.27;6.13;;;14.20;99.90;;;;;;5046828;27;86366;-74
2023/09/05 06:20:23;;;;;;;11.55;6.13;;;14.30;99.90;;;;;;5047722;27;86766;-74
2023/09/05 06:22:49;;;;;;;13.85;5.47;;;14.40;99.90;;;;;;5048241;27;86205;-75
2023/09/05 06:25:16;;;;;;;27.25;6.20;;;14.50;99.90;;;;;;5048774;27;85779;-74
2023/09/05 06:27:43;;;;;;;9.40;5.63;;;14.60;99.90;;;;;;5045387;27;91704;-74
2023/09/05 06:30:12;;;;;;;10.13;5.70;;;14.70;99.90;;;;;;5046936;27;87044;-75
2023/09/05 06:32:38;;;;;;;11.35;6.30;;;14.90;99.90;;;;;;5046603;27;86480;-75
2023/09/05 06:35:07;;;;;;;11.95;6.97;;;14.90;99.90;;;;;;5048602;27;86379;-75
2023/09/05 06:37:36;;;;;;;16.88;7.40;;;15.10;99.90;;;;;;5046401;27;88992;-75
2023/09/05 06:40:09;;;;;;;12.85;7.32;;;15.20;99.90;;;;;;5045963;27;87157;-75
2023/09/05 06:42:38;;;;;;;17.20;7.63;;;15.30;99.90;;;;;;5045866;27;86581;-75
2023/09/05 06:45:05;;;;;;;12.27;7.72;;;15.40;99.90;;;;;;5044768;27;86327;-75
2023/09/05 06:47:31;;;;;;;22.17;7.93;;;15.50;99.90;;;;;;5047523;27;86999;-75
2023/09/05 06:49:56;;;;;;;18.95;9.05;;;15.60;99.90;;;;;;5046809;27;86871;-77
2023/09/05 06:52:22;;;;;;;14.45;9.40;;;15.70;99.90;;;;;;5046895;27;86322;-77
2023/09/05 06:54:48;;;;;;;27.40;10.52;;;15.80;99.90;;;;;;5050507;27;86546;-77
2023/09/05 06:57:16;;;;;;;19.92;10.45;;;16.00;99.90;;;;;;5046902;27;87952;-76
2023/09/05 06:59:42;;;;;;;15.23;9.45;;;16.00;99.90;;;;;;5038820;27;86926;-77
2023/09/05 07:02:07;;;;;;;13.70;9.35;;;16.20;99.90;;;;;;5049582;27;86238;-77
2023/09/05 07:04:36;;;;;;;16.13;10.40;;;16.30;99.90;;;;;;5045676;27;86139;-77
2023/09/05 07:07:03;;;;;;;16.63;10.75;;;16.40;99.90;;;;;;5047452;27;87454;-78
2023/09/05 07:09:29;;;;;;;16.52;10.13;;;16.50;99.90;;;;;;5042634;27;87969;-77
2023/09/05 07:11:56;;;;;;;16.27;9.75;;;16.60;99.90;;;;;;5039118;27;86413;-77
2023/09/05 07:14:21;;;;;;;21.50;9.52;;;16.70;99.90;;;;;;5038789;27;86287;-76
2023/09/05 07:16:47;;;;;;;12.27;8.50;;;16.90;99.90;;;;;;5039812;27;87305;-76
2023/09/05 07:19:13;;;;;;;15.98;8.10;;;16.90;99.90;;;;;;5039855;27;88072;-77
2023/09/05 07:21:40;;;;;;;16.30;8.07;;;17.00;99.90;;;;;;5037991;27;86353;-76
2023/09/05 07:24:11;;;;;;;18.85;8.52;;;17.20;99.90;;;;;;5039582;27;85885;-77
2023/09/05 07:26:38;;;;;;;13.95;8.20;;;17.20;99.90;;;;;;5054812;27;88103;-77
2023/09/05 07:29:05;;;;;;;13.77;8.40;;;17.40;99.90;;;;;;5041649;27;86979;-76
2023/09/05 07:31:31;;;;;;;17.67;8.80;;;17.50;99.90;;;;;;5038715;27;86678;-77
2023/09/05 07:34:00;;;;;;;15.45;7.88;;;17.60;99.90;;;;;;5042716;27;86489;-77
2023/09/05 07:36:27;;;;;;;12.15;7.60;;;17.70;99.90;;;;;;5040732;27;88105;-77
2023/09/05 07:38:53;;;;;;;11.45;8.02;;;17.80;99.90;;;;;;5044148;27;86960;-76
2023/09/05 07:41:19;;;;;;;17.98;7.95;;;17.90;99.90;;;;;;5041350;27;86659;-77
2023/09/05 07:43:45;;;;;;;12.35;6.90;;;18.00;99.90;;;;;;5044384;27;86430;-77
2023/09/05 07:46:11;;;;;;;13.65;6.90;;;18.10;99.90;;;;;;5040528;27;86454;-76
2023/09/05 07:48:38;;;;;;;13.05;7.32;;;18.20;99.90;;;;;;5042263;27;86404;-77
2023/09/05 07:51:06;;;;;;;9.73;6.95;;;18.30;99.90;;;;;;5044350;27;86046;-77
2023/09/05 07:53:35;;;;;;;10.82;6.95;;;18.50;99.90;;;;;;5043837;27;86248;-77
2023/09/05 07:56:01;;;;;;;15.27;7.00;;;18.60;99.90;;;;;;5043437;27;87058;-77
2023/09/05 08:02:10;;;;;;;21.92;6.90;;;18.90;99.90;;;;;;4940650;28;86805;-77
2023/09/05 08:11:31;;;;;;;7.20;5.07;;;19.50;98.90;;;;;;4808596;28;87933;-76
2023/09/05 08:17:11;;;;;;;8.15;5.03;;;19.70;98.60;;;;;;4942140;28;87208;-75
2023/09/05 08:19:44;;;;;;;6.57;4.22;;;19.90;97.90;;;;;;4955776;28;87750;-76
2023/09/05 08:22:12;;;;;;;10.45;5.03;;;20.00;97.80;;;;;;4976080;28;90552;-75
2023/09/05 08:24:40;;;;;;;6.47;4.00;;;20.20;97.80;;;;;;4986968;28;86131;-75
2023/09/05 08:27:06;;;;;;;13.25;5.22;;;20.40;97.60;;;;;;4970471;28;86271;-76
2023/09/05 08:29:32;;;;;;;8.02;4.70;;;20.50;97.70;;;;;;4961527;28;91070;-75
2023/09/05 08:32:01;;;;;;;6.35;4.07;;;20.70;97.80;;;;;;5015748;27;86626;-75
2023/09/05 08:34:28;;;;;;;7.70;4.15;;;20.90;97.70;;;;;;5044939;27;86437;-75
2023/09/05 08:36:54;;;;;;;13.80;4.60;;;21.00;96.60;;;;;;5046603;27;86199;-75
2023/09/05 08:39:19;;;;;;;12.63;4.15;;;21.20;97.20;;;;;;5042380;27;90411;-75
2023/09/05 08:41:46;;;;;;;7.18;3.20;;;21.40;96.60;;;;;;5044614;27;90344;-73
2023/09/05 08:44:12;;;;;;;8.02;3.70;;;21.60;95.90;;;;;;5044419;27;87073;-76
2023/09/05 08:46:39;;;;;;;6.13;2.97;;;21.80;96.00;;;;;;5040826;27;86997;-75
2023/09/05 08:49:05;;;;;;;3.60;3.05;;;22.00;95.80;;;;;;5042916;27;87435;-76
2023/09/05 08:51:35;;;;;;;7.38;3.05;;;22.10;95.00;;;;;;5040649;27;90309;-76
2023/09/05 08:54:03;;;;;;;6.63;2.70;;;22.20;95.40;;;;;;5043391;27;85924;-75
2023/09/05 08:56:29;;;;;;;4.03;2.45;;;22.40;94.80;;;;;;5041988;27;86299;-76
2023/09/05 08:59:00;;;;;;;4.95;2.42;;;22.60;94.30;;;;;;5040937;27;90873;-76
2023/09/05 09:01:27;;;;;;;7.50;2.75;;;22.70;93.60;;;;;;5045398;27;88596;-76
2023/09/05 09:03:54;;;;;;;2.22;1.77;;;22.90;93.90;;;;;;5046896;27;86404;-76
2023/09/05 09:07:35;;;;;;;6.25;2.42;;;23.20;93.70;;;;;;5042309;27;86659;-77
2023/09/05 09:10:27;;;;;;;13.55;3.03;;;23.50;93.00;;;;;;5042278;27;90944;-77
2023/09/05 09:13:38;;;;;;;6.43;2.38;;;23.80;92.90;;;;;;5001456;27;93618;-77
2023/09/05 09:16:09;;;;;;;4.50;2.47;;;24.10;91.90;;;;;;5049518;27;86700;-78
2023/09/05 09:19:05;;;;;;;;;;;;;;;;;;;;;
2023/09/05 09:21:32;;;;;;;5.78;2.20;;;24.50;90.20;;;;;;5044155;27;116005;-77
2023/09/05 09:23:59;;;;;;;4.88;2.15;;;24.70;88.70;;;;;;5028788;27;88569;-77
2023/09/05 09:26:26;;;;;;;4.22;1.95;;;24.80;88.40;;;;;;5014163;27;87031;-77
2023/09/05 09:28:52;;;;;;;2.70;1.90;;;25.10;88.50;;;;;;5048259;27;86281;-77
2023/09/05 09:31:29;;;;;;;8.70;2.88;;;25.30;86.50;;;;;;5044838;27;91540;-76
2023/09/05 09:33:59;;;;;;;5.50;2.50;;;25.50;86.30;;;;;;5046462;27;90463;-77
2023/09/05 09:36:54;;;;;;;6.10;2.25;;;25.80;87.60;;;;;;5061031;27;86995;-77
2023/09/05 09:39:20;;;;;;;3.90;1.92;;;26.00;85.40;;;;;;5043729;27;86390;-78
2023/09/05 09:41:47;;;;;;;3.35;1.50;;;26.20;85.20;;;;;;5042513;27;90972;-75
2023/09/05 09:44:28;;;;;;;4.55;1.88;;;26.40;84.30;;;;;;5048212;27;86447;-75
2023/09/05 09:46:55;;;;;;;2.72;1.40;;;26.60;81.90;;;;;;5046251;27;86295;-75
2023/09/05 09:49:22;;;;;;;3.33;1.70;;;26.80;82.60;;;;;;5044592;27;87585;-75
2023/09/05 09:51:56;;;;;;;3.60;1.63;;;27.00;81.30;;;;;;5045787;27;90380;-75
2023/09/05 09:54:38;;;;;;;5.90;1.90;;;27.20;82.10;;;;;;5045230;27;89255;-75
2023/09/05 09:57:05;;;;;;;6.53;1.50;;;27.50;82.00;;;;;;5044950;27;86710;-76
2023/09/05 09:59:38;;;;;;;3.53;1.70;;;27.80;79.80;;;;;;5043276;27;87102;-75
2023/09/05 10:02:04;;;;;;;;;;;28.00;78.40;;;;;;5042325;27;87513;-75
2023/09/05 10:04:30;;;;;;;3.00;1.58;;;28.20;78.60;;;;;;5044749;27;87775;-75
2023/09/05 10:06:56;;;;;;;4.97;1.77;;;28.40;80.90;;;;;;5043241;27;87352;-75
2023/09/05 10:09:23;;;;;;;3.78;1.63;;;28.70;76.10;;;;;;5048702;27;86513;-75
2023/09/05 10:11:50;;;;;;;4.32;1.50;;;29.00;74.90;;;;;;5048629;27;87501;-75
2023/09/05 10:14:16;;;;;;;2.47;1.60;;;29.20;76.30;;;;;;5045002;27;90784;-76
2023/09/05 10:16:44;;;;;;;6.00;1.70;;;29.40;71.80;;;;;;5047317;27;86705;-75
2023/09/05 10:19:10;;;;;;;3.17;1.50;;;29.70;71.60;;;;;;5048816;27;86189;-74
2023/09/05 10:21:36;;;;;;;6.50;2.30;;;29.90;74.00;;;;;;5047653;27;87304;-75
2023/09/05 10:24:05;;;;;;;3.40;1.55;;;30.10;71.20;;;;;;5046482;27;89994;-75
2023/09/05 10:26:30;;;;;;;5.40;1.50;;;30.10;67.80;;;;;;5045959;27;86451;-75
2023/09/05 10:28:58;;;;;;;5.38;1.40;;;30.30;69.80;;;;;;5046206;27;86013;-75
2023/09/05 10:31:25;;;;;;;4.50;1.52;;;30.50;68.20;;;;;;5045704;27;87518;-75
2023/09/05 10:33:50;;;;;;;8.05;2.10;;;30.70;71.20;;;;;;5046558;27;87359;-75
2023/09/05 10:36:39;;;;;;;4.60;1.40;;;30.80;66.90;;;;;;5046107;27;86799;-75
2023/09/05 10:39:27;;;;;;;5.22;1.50;;;31.10;68.60;;;;;;5047812;27;86220;-76
2023/09/05 10:41:53;;;;;;;3.95;1.80;;;31.30;64.20;;;;;;5046625;27;87044;-75
2023/09/05 10:44:21;;;;;;;2.30;1.20;;;31.50;67.90;;;;;;5043030;27;88552;-75
2023/09/05 10:47:16;;;;;;;5.00;1.42;;;31.80;67.90;;;;;;5045507;27;86502;-75
2023/09/05 10:49:46;;;;;;;4.10;1.60;;;32.00;67.90;;;;;;5043638;27;86722;-75
2023/09/05 10:52:15;;;;;;;3.40;2.05;;;32.30;67.60;;;;;;5044115;27;87337;-75
2023/09/05 10:54:40;;;;;;;2.58;1.30;;;32.60;63.10;;;;;;5044550;27;86610;-75
2023/09/05 10:57:32;;;;;;;1.75;1.30;;;32.80;64.70;;;;;;5043671;27;86587;-75
2023/09/05 10:59:58;;;;;;;11.63;3.33;;;33.10;63.90;;;;;;5044339;27;86619;-75
2023/09/05 11:02:26;;;;;;;6.30;2.92;;;33.20;63.30;;;;;;5046140;27;86916;-75
2023/09/05 11:04:55;;;;;;;3.97;1.50;;;33.40;63.50;;;;;;5046070;27;86708;-75
2023/09/05 11:07:23;;;;;;;4.20;1.38;;;33.50;65.50;;;;;;5044714;27;86820;-75
2023/09/05 11:09:49;;;;;;;9.02;3.13;;;33.70;62.50;;;;;;5049678;27;86561;-75
2023/09/05 11:12:21;;;;;;;3.75;1.40;;;33.90;58.90;;;;;;5046638;27;87532;-76
2023/09/05 11:14:47;;;;;;;4.50;1.42;;;33.90;63.80;;;;;;5047548;27;86940;-75
2023/09/05 11:17:15;;;;;;;2.15;1.35;;;34.10;63.50;;;;;;5046701;27;86730;-75
2023/09/05 11:19:47;;;;;;;4.60;1.60;;;34.40;60.70;;;;;;5046281;27;86853;-75
2023/09/05 11:22:18;;;;;;;2.33;1.35;;;34.50;57.40;;;;;;5063436;27;90719;-75
2023/09/05 11:24:49;;;;;;;2.85;1.20;;;34.60;58.50;;;;;;5043135;27;94433;-76
2023/09/05 11:27:21;;;;;;;3.92;1.35;;;34.90;57.10;;;;;;5044786;27;86909;-75
2023/09/05 11:29:49;;;;;;;2.10;1.20;;;35.00;57.70;;;;;;5046631;27;86504;-75
2023/09/05 11:32:15;;;;;;;2.58;1.20;;;35.10;57.50;;;;;;5045580;27;86640;-74
2023/09/05 11:34:42;;;;;;;2.25;1.20;;;35.20;58.10;;;;;;5043228;27;87432;-76
2023/09/05 11:37:08;;;;;;;3.60;1.38;;;35.40;58.80;;;;;;5046591;27;86129;-76
2023/09/05 11:39:34;;;;;;;2.47;1.20;;;35.50;57.50;;;;;;5044930;27;86278;-75
2023/09/05 11:42:00;;;;;;;13.43;1.50;;;35.50;59.00;;;;;;5044909;27;87800;-75
2023/09/05 11:44:53;;;;;;;4.10;1.30;;;35.70;58.00;;;;;;5044392;27;86981;-75
2023/09/05 11:47:22;;;;;;;2.97;1.30;;;36.00;55.70;;;;;;5044795;27;86554;-76
2023/09/05 11:49:49;;;;;;;2.65;1.30;;;36.20;55.80;;;;;;5041479;27;86687;-76
2023/09/05 11:52:16;;;;;;;4.97;1.33;;;36.40;56.90;;;;;;5045204;27;86941;-75
2023/09/05 11:54:42;;;;;;;2.90;1.30;;;36.50;55.80;;;;;;5044722;27;91373;-75
2023/09/05 11:57:09;;;;;;;9.90;2.15;;;36.70;54.50;;;;;;5043711;27;86587;-76
2023/09/05 11:59:35;;;;;;;14.98;2.17;;;36.80;53.60;;;;;;5045834;27;86677;-76
2023/09/05 12:02:08;;;;;;;6.15;1.80;;;37.00;56.80;;;;;;5036596;27;90524;-76
2023/09/05 12:04:34;;;;;;;7.35;1.70;;;37.00;51.40;;;;;;5045791;27;87524;-75
2023/09/05 12:07:03;;;;;;;4.57;1.60;;;36.90;55.40;;;;;;5045482;27;86434;-76
2023/09/05 12:09:29;;;;;;;8.98;1.75;;;37.00;55.50;;;;;;5043762;27;86303;-76
2023/09/05 12:12:09;;;;;;;7.07;1.48;;;37.10;52.20;;;;;;5044415;27;86571;-76
2023/09/05 12:14:55;;;;;;;3.58;1.40;;;37.20;55.40;;;;;;5043846;27;85947;-76
2023/09/05 12:17:25;;;;;;;2.53;1.15;;;37.40;54.10;;;;;;5046029;27;86992;-76
2023/09/05 12:19:53;;;;;;;6.40;1.67;;;37.60;52.20;;;;;;5050388;27;86606;-76
2023/09/05 12:22:24;;;;;;;2.08;1.13;;;37.70;52.20;;;;;;5050016;27;87159;-76
2023/09/05 12:25:10;;;;;;;9.45;1.00;;;37.90;52.40;;;;;;5050669;27;87186;-76
2023/09/05 12:27:35;;;;;;;2.28;1.02;;;38.00;51.70;;;;;;5046386;27;87244;-76
2023/09/05 12:30:01;;;;;;;4.90;0.90;;;38.10;52.50;;;;;;5048580;27;86171;-76
2023/09/05 12:32:27;;;;;;;3.38;1.60;;;38.20;50.40;;;;;;5048053;27;87068;-75
2023/09/05 12:34:53;;;;;;;5.22;1.35;;;38.40;50.20;;;;;;5047706;27;89668;-77
2023/09/05 12:37:19;;;;;;;4.22;1.40;;;38.50;52.00;;;;;;5048738;27;85980;-75
2023/09/05 12:39:45;;;;;;;4.00;1.20;;;38.70;50.60;;;;;;5049630;27;85873;-76
2023/09/05 12:42:11;;;;;;;2.75;1.20;;;38.60;47.30;;;;;;5048359;27;88159;-73
2023/09/05 12:44:37;;;;;;;2.58;1.20;;;38.60;51.40;;;;;;5043866;27;88539;-74
2023/09/05 12:47:03;;;;;;;6.88;1.25;;;38.60;48.40;;;;;;5043127;27;86214;-74
2023/09/05 12:49:30;;;;;;;6.60;1.13;;;38.60;47.30;;;;;;5046240;27;86373;-76
2023/09/05 12:51:57;;;;;;;3.70;1.42;;;38.90;49.00;;;;;;5049484;27;88058;-75
2023/09/05 12:54:23;;;;;;;3.10;1.10;;;38.90;49.10;;;;;;5047973;27;86843;-76
2023/09/05 12:56:48;;;;;;;2.38;1.00;;;39.10;50.70;;;;;;5047529;27;86370;-75
2023/09/05 12:59:15;;;;;;;2.95;1.38;;;39.30;49.20;;;;;;5048674;27;86336;-77
2023/09/05 13:01:41;;;;;;;3.05;1.65;;;39.60;50.70;;;;;;5048076;27;87746;-76
2023/09/05 13:04:07;;;;;;;1.92;0.90;;;39.90;49.70;;;;;;5049305;27;87112;-76